createdAt,value
2018-12-23T00:00:24.647Z,26.60
2018-12-23T00:05:26.518Z,21.60
2018-12-23T00:07:59.142Z,21.03
2018-12-23T00:10:29.354Z,22.30
2018-12-23T00:13:02.126Z,19.90
2018-12-23T00:15:32.535Z,19.57
2018-12-23T00:18:02.448Z,19.03
2018-12-23T00:20:33.091Z,20.00
2018-12-23T00:23:06.749Z,21.17
2018-12-23T00:25:40.633Z,20.17
2018-12-23T00:28:17.137Z,18.17
2018-12-23T00:30:47.237Z,19.10
2018-12-23T00:33:16.957Z,17.73
2018-12-23T00:35:45.254Z,18.07
2018-12-23T00:38:18.845Z,18.33
2018-12-23T00:40:48.921Z,18.53
2018-12-23T00:43:18.861Z,17.93
2018-12-23T00:45:48.595Z,16.30
2018-12-23T00:48:18.619Z,15.47
2018-12-23T00:50:54.224Z,14.97
2018-12-23T00:53:29.121Z,15.23
2018-12-23T00:56:03.088Z,14.17
2018-12-23T00:58:36.059Z,14.57
2018-12-23T01:01:09.040Z,14.57
2018-12-23T01:03:43.295Z,13.97
2018-12-23T01:06:20.274Z,13.87
2018-12-23T01:08:53.787Z,14.33
2018-12-23T01:11:28.290Z,14.40
2018-12-23T01:14:01.107Z,14.90
2018-12-23T01:16:34.340Z,14.10
2018-12-23T01:19:14.903Z,13.57
2018-12-23T01:21:47.943Z,13.27
2018-12-23T01:24:24.987Z,11.97
2018-12-23T01:26:58.109Z,12.40
2018-12-23T01:29:28.404Z,12.87
2018-12-23T01:32:07.504Z,13.43
2018-12-23T01:34:38.274Z,15.00
2018-12-23T01:37:08.990Z,14.40
2018-12-23T01:39:42.546Z,14.27
2018-12-23T01:42:19.144Z,13.33
2018-12-23T01:44:49.830Z,16.00
2018-12-23T01:47:20.788Z,15.03
2018-12-23T01:49:55.128Z,15.47
2018-12-23T01:52:28.962Z,16.40
2018-12-23T01:55:04.375Z,16.43
2018-12-23T01:57:38.614Z,16.77
2018-12-23T02:00:12.736Z,17.10
2018-12-23T02:02:46.716Z,19.00
2018-12-23T02:05:20.792Z,17.77
2018-12-23T02:07:54.461Z,18.80
2018-12-23T02:10:27.924Z,20.40
2018-12-23T02:13:03.108Z,16.50
2018-12-23T02:15:36.144Z,17.00
2018-12-23T02:18:08.977Z,18.57
2018-12-23T02:20:42.706Z,19.17
2018-12-23T02:23:15.748Z,20.13
2018-12-23T02:25:45.784Z,18.23
2018-12-23T02:28:20.026Z,19.57
2018-12-23T02:30:49.965Z,20.17
2018-12-23T02:33:24.051Z,22.67
2018-12-23T02:35:58.486Z,22.23
2018-12-23T02:38:28.911Z,22.53
2018-12-23T02:40:58.926Z,24.60
2018-12-23T02:43:31.618Z,23.37
2018-12-23T02:46:05.931Z,22.93
2018-12-23T02:48:39.420Z,21.63
2018-12-23T02:51:09.950Z,22.00
2018-12-23T02:53:38.728Z,23.17
2018-12-23T02:56:08.776Z,23.10
2018-12-23T02:58:43.877Z,22.97
2018-12-23T03:01:14.484Z,22.37
2018-12-23T03:03:44.438Z,24.90
2018-12-23T03:06:17.152Z,24.30
2018-12-23T03:08:51.396Z,24.77
2018-12-23T03:11:21.377Z,23.63
2018-12-23T03:13:54.843Z,22.07
2018-12-23T03:16:27.626Z,23.17
2018-12-23T03:19:00.513Z,20.30
2018-12-23T03:21:34.235Z,20.07
2018-12-23T03:24:04.647Z,21.07
2018-12-23T03:26:38.243Z,21.13
2018-12-23T03:29:11.130Z,22.50
2018-12-23T03:31:41.180Z,22.90
2018-12-23T03:34:10.983Z,23.03
2018-12-23T03:36:43.635Z,23.00
2018-12-23T03:39:16.522Z,25.40
2018-12-23T03:41:44.678Z,22.30
2018-12-23T03:44:14.629Z,22.30
2018-12-23T03:46:44.621Z,21.67
2018-12-23T03:49:17.979Z,22.97
2018-12-23T03:51:52.087Z,22.90
2018-12-23T03:54:22.663Z,22.60
2018-12-23T03:56:55.229Z,22.80
2018-12-23T03:59:28.176Z,24.37
2018-12-23T04:02:01.594Z,25.10
2018-12-23T04:04:40.611Z,27.27
2018-12-23T04:07:14.242Z,31.80
2018-12-23T04:09:47.249Z,39.37
2018-12-23T04:12:21.239Z,42.83
2018-12-23T04:14:51.564Z,38.60
2018-12-23T04:17:24.373Z,38.70
2018-12-23T04:19:55.183Z,35.10
2018-12-23T04:22:25.021Z,32.73
2018-12-23T04:25:03.218Z,30.60
2018-12-23T04:27:33.936Z,31.43
2018-12-23T04:30:06.521Z,37.13
2018-12-23T04:32:40.360Z,33.10
2018-12-23T04:35:10.534Z,32.53
2018-12-23T04:37:40.536Z,33.57
2018-12-23T04:40:10.469Z,30.43
2018-12-23T04:42:43.308Z,26.10
2018-12-23T04:45:16.074Z,27.27
2018-12-23T04:47:44.428Z,25.00
2018-12-23T04:50:15.121Z,30.23
2018-12-23T04:52:51.256Z,27.53
2018-12-23T04:55:25.360Z,27.57
2018-12-23T04:57:55.726Z,22.77
2018-12-23T05:00:26.402Z,23.20
2018-12-23T05:02:59.004Z,22.93
2018-12-23T05:05:33.053Z,21.90
2018-12-23T05:08:05.865Z,23.03
2018-12-23T05:10:36.344Z,22.80
2018-12-23T05:13:09.782Z,21.13
2018-12-23T05:15:40.781Z,20.80
2018-12-23T05:18:16.493Z,21.17
2018-12-23T05:20:49.578Z,19.07
2018-12-23T05:23:22.476Z,19.93
2018-12-23T05:26:00.506Z,18.80
2018-12-23T05:28:34.337Z,17.17
2018-12-23T05:31:07.910Z,18.20
2018-12-23T05:33:42.126Z,18.30
2018-12-23T05:36:18.805Z,18.37
2018-12-23T05:38:49.254Z,18.93
2018-12-23T05:41:22.867Z,17.03
2018-12-23T05:43:55.664Z,16.77
2018-12-23T05:46:28.498Z,17.67
2018-12-23T05:48:58.796Z,17.90
2018-12-23T05:51:27.582Z,16.77
2018-12-23T05:53:58.538Z,17.90
2018-12-23T05:56:31.912Z,18.37
2018-12-23T05:59:02.298Z,17.90
2018-12-23T06:01:32.978Z,18.00
2018-12-23T06:04:03.773Z,19.17
2018-12-23T06:06:37.822Z,19.43
2018-12-23T06:09:11.186Z,21.40
2018-12-23T06:11:45.243Z,19.07
2018-12-23T06:14:17.946Z,20.87
2018-12-23T06:16:51.680Z,23.57
2018-12-23T06:19:24.328Z,22.40
2018-12-23T06:22:03.768Z,25.23
2018-12-23T06:24:39.070Z,24.20
2018-12-23T06:27:11.680Z,23.97
2018-12-23T06:29:42.424Z,24.50
2018-12-23T06:32:12.746Z,35.57
2018-12-23T06:34:47.116Z,36.77
2018-12-23T06:37:24.166Z,37.10
2018-12-23T06:39:56.602Z,32.97
2018-12-23T06:42:29.482Z,32.63
2018-12-23T06:44:59.549Z,30.43
2018-12-23T06:47:29.864Z,32.10
2018-12-23T06:50:04.108Z,30.33
2018-12-23T06:52:38.124Z,29.93
2018-12-23T06:55:11.033Z,31.23
2018-12-23T06:57:44.388Z,30.97
2018-12-23T07:00:16.328Z,28.97
2018-12-23T07:02:50.500Z,26.93
2018-12-23T07:05:24.622Z,30.10
2018-12-23T07:07:54.604Z,29.13
2018-12-23T07:10:24.584Z,29.83
2018-12-23T07:12:57.427Z,30.33
2018-12-23T07:15:27.660Z,27.53
2018-12-23T07:18:00.624Z,26.80
2018-12-23T07:20:33.596Z,28.33
2018-12-23T07:23:06.294Z,26.13
2018-12-23T07:25:42.896Z,24.97
2018-12-23T07:28:15.722Z,24.07
2018-12-23T07:30:48.505Z,21.83
2018-12-23T07:33:21.175Z,17.60
2018-12-23T07:35:53.896Z,22.20
2018-12-23T07:38:22.796Z,22.60
2018-12-23T07:40:54.041Z,24.77
2018-12-23T07:43:24.002Z,22.33
2018-12-23T07:45:53.814Z,22.13
2018-12-23T07:48:24.727Z,23.90
2018-12-23T07:50:57.532Z,20.83
2018-12-23T07:53:31.018Z,20.03
2018-12-23T07:56:03.603Z,23.27
2018-12-23T07:58:31.445Z,30.37
2018-12-23T08:00:58.350Z,28.77
2018-12-23T08:03:31.660Z,24.23
2018-12-23T08:06:06.643Z,25.13
2018-12-23T08:08:39.844Z,22.97
2018-12-23T08:11:13.247Z,25.07
2018-12-23T08:13:46.644Z,21.90
2018-12-23T08:16:16.886Z,22.57
2018-12-23T08:18:49.600Z,22.00
2018-12-23T08:21:23.202Z,22.53
2018-12-23T08:23:56.314Z,29.17
2018-12-23T08:26:37.906Z,25.50
2018-12-23T08:29:08.414Z,21.70
2018-12-23T08:31:38.477Z,21.60
2018-12-23T08:34:09.173Z,22.97
2018-12-23T08:36:46.760Z,27.53
2018-12-23T08:39:17.163Z,20.00
2018-12-23T08:41:47.832Z,20.13
2018-12-23T08:44:20.618Z,21.43
2018-12-23T08:46:54.732Z,25.13
2018-12-23T08:49:24.569Z,28.07
2018-12-23T08:51:57.522Z,24.27
2018-12-23T08:54:32.082Z,23.57
2018-12-23T08:57:05.090Z,25.90
2018-12-23T08:59:35.315Z,26.27
2018-12-23T09:02:11.648Z,25.33
2018-12-23T09:04:41.623Z,27.57
2018-12-23T09:07:12.167Z,28.43
2018-12-23T09:09:44.970Z,24.93
2018-12-23T09:12:18.852Z,24.47
2018-12-23T09:14:49.126Z,25.57
2018-12-23T09:17:19.826Z,23.77
2018-12-23T09:19:49.926Z,26.57
2018-12-23T09:22:22.842Z,25.87
2018-12-23T09:25:00.716Z,27.20
2018-12-23T09:27:33.332Z,28.77
2018-12-23T09:30:10.379Z,27.73
2018-12-23T09:32:43.252Z,25.17
2018-12-23T09:35:13.334Z,26.77
2018-12-23T09:37:46.874Z,27.17
2018-12-23T09:40:19.887Z,26.07
2018-12-23T09:42:50.278Z,27.10
2018-12-23T09:45:20.490Z,30.93
2018-12-23T09:47:53.265Z,28.93
2018-12-23T09:50:26.151Z,27.77
2018-12-23T09:52:58.896Z,28.33
2018-12-23T09:55:33.730Z,26.27
2018-12-23T10:00:49.714Z,27.07
2018-12-23T10:03:23.377Z,33.37
2018-12-23T10:06:00.251Z,36.37
2018-12-23T10:08:35.062Z,32.60
2018-12-23T10:11:14.362Z,34.30
2018-12-23T10:13:51.675Z,35.17
2018-12-23T10:16:24.531Z,37.23
2018-12-23T10:19:03.101Z,37.57
2018-12-23T10:21:42.351Z,36.80
2018-12-23T10:24:15.194Z,34.27
2018-12-23T10:26:47.739Z,34.30
2018-12-23T10:29:17.943Z,31.50
2018-12-23T10:31:51.045Z,31.77
2018-12-23T10:34:34.365Z,30.33
2018-12-23T10:37:09.047Z,29.50
2018-12-23T10:39:42.655Z,28.87
2018-12-23T10:42:13.477Z,27.40
2018-12-23T10:45:00.493Z,26.17
2018-12-23T10:47:36.619Z,26.80
2018-12-23T10:50:09.505Z,26.17
2018-12-23T10:52:43.950Z,25.73
2018-12-23T10:55:11.762Z,25.63
2018-12-23T10:58:29.479Z,27.53
2018-12-23T11:01:00.170Z,26.27
2018-12-23T11:03:27.751Z,28.30
2018-12-23T11:06:18.175Z,26.50
2018-12-23T11:08:48.459Z,25.03
2018-12-23T11:11:16.075Z,26.23
2018-12-23T11:13:54.238Z,25.63
2018-12-23T11:16:25.053Z,25.07
2018-12-23T11:18:52.662Z,24.30
2018-12-23T11:21:25.796Z,23.17
2018-12-23T11:23:53.363Z,23.67
2018-12-23T11:26:30.133Z,23.87
2018-12-23T11:28:57.695Z,22.23
2018-12-23T11:31:29.407Z,22.80
2018-12-23T11:33:56.953Z,21.40
2018-12-23T11:36:24.483Z,21.00
2018-12-23T11:38:52.077Z,21.83
2018-12-23T11:41:19.687Z,21.03
2018-12-23T11:43:48.807Z,21.30
2018-12-23T11:46:16.551Z,21.10
2018-12-23T11:48:46.567Z,21.43
2018-12-23T11:54:07.096Z,20.83
2018-12-23T11:56:34.793Z,22.13
2018-12-23T11:59:07.934Z,19.40
2018-12-23T12:01:47.391Z,17.90
2018-12-23T12:04:14.843Z,18.73
2018-12-23T12:06:42.447Z,18.67
2018-12-23T12:09:10.013Z,19.37
2018-12-23T12:11:37.595Z,22.73
2018-12-23T12:14:05.212Z,21.50
2018-12-23T12:16:32.815Z,20.43
2018-12-23T12:19:00.323Z,21.33
2018-12-23T12:21:27.872Z,20.80
2018-12-23T12:23:55.417Z,21.17
2018-12-23T12:26:22.955Z,20.73
2018-12-23T12:28:50.483Z,21.57
2018-12-23T12:31:18.121Z,21.70
2018-12-23T12:33:45.596Z,22.07
2018-12-23T12:36:13.014Z,20.30
2018-12-23T12:38:40.535Z,20.10
2018-12-23T12:41:08.050Z,18.73
2018-12-23T12:43:35.484Z,21.57
2018-12-23T12:46:07.655Z,21.63
2018-12-23T12:48:38.195Z,21.00
2018-12-23T12:51:07.391Z,23.10
2018-12-23T12:53:36.524Z,24.37
2018-12-23T12:56:03.982Z,25.80
2018-12-23T12:58:31.593Z,27.20
2018-12-23T13:00:59.164Z,32.93
2018-12-23T13:03:26.624Z,32.53
2018-12-23T13:05:54.166Z,34.50
2018-12-23T13:08:21.754Z,33.70
2018-12-23T13:10:49.364Z,33.90
2018-12-23T13:13:16.859Z,34.30
2018-12-23T13:15:46.654Z,40.47
2018-12-23T13:18:19.105Z,41.90
2018-12-23T13:20:46.664Z,43.20
2018-12-23T13:23:14.334Z,42.47
2018-12-23T13:25:44.344Z,41.37
2018-12-23T13:28:11.938Z,39.70
2018-12-23T13:30:39.560Z,40.60
2018-12-23T13:33:07.014Z,39.30
2018-12-23T13:35:34.528Z,39.50
2018-12-23T13:38:03.062Z,37.07
2018-12-23T13:40:32.406Z,36.23
2018-12-23T13:43:04.510Z,34.17
2018-12-23T13:45:50.592Z,34.60
2018-12-23T13:48:25.591Z,35.17
2018-12-23T13:51:09.850Z,33.90
2018-12-23T13:53:43.066Z,32.33
2018-12-23T13:56:12.153Z,35.73
2018-12-23T13:58:42.006Z,33.97
2018-12-23T14:01:29.487Z,32.93
2018-12-23T14:04:10.365Z,30.80
2018-12-23T14:06:48.170Z,30.63
2018-12-23T14:09:17.488Z,31.33
2018-12-23T14:11:56.901Z,28.17
2018-12-23T14:14:24.553Z,29.23
2018-12-23T14:16:52.125Z,29.50
2018-12-23T14:19:19.627Z,30.00
2018-12-23T14:21:48.262Z,32.50
2018-12-23T14:24:15.878Z,35.27
2018-12-23T14:26:43.378Z,34.10
2018-12-23T14:29:11.043Z,34.57
2018-12-23T14:31:38.551Z,32.10
2018-12-23T14:34:06.170Z,29.93
2018-12-23T14:36:33.666Z,31.17
2018-12-23T14:39:01.128Z,29.23
2018-12-23T14:41:28.846Z,27.80
2018-12-23T14:43:56.422Z,26.77
2018-12-23T14:46:25.242Z,27.63
2018-12-23T14:48:52.768Z,26.40
2018-12-23T14:51:20.324Z,25.63
2018-12-23T14:53:49.215Z,25.70
2018-12-23T14:56:16.705Z,32.00
2018-12-23T14:58:44.326Z,29.10
2018-12-23T15:01:11.835Z,27.87
2018-12-23T15:03:39.453Z,31.50
2018-12-23T15:06:08.666Z,33.13
2018-12-23T15:08:36.319Z,32.67
2018-12-23T15:11:05.083Z,30.80
2018-12-23T15:13:34.374Z,30.27
2018-12-23T15:16:04.984Z,31.60
2018-12-23T15:18:33.398Z,30.70
2018-12-23T15:21:01.056Z,31.10
2018-12-23T15:23:28.712Z,30.93
2018-12-23T15:25:57.836Z,30.87
2018-12-23T15:28:25.343Z,30.60
2018-12-23T15:30:52.846Z,32.20
2018-12-23T15:33:20.353Z,30.20
2018-12-23T15:35:47.941Z,29.17
2018-12-23T15:38:15.501Z,31.00
2018-12-23T15:40:42.941Z,33.37
2018-12-23T15:43:10.499Z,31.50
2018-12-23T15:45:38.068Z,35.37
2018-12-23T15:48:05.577Z,36.90
2018-12-23T15:50:33.157Z,35.27
2018-12-23T15:53:03.835Z,37.60
2018-12-23T15:55:31.476Z,34.13
2018-12-23T15:57:59.085Z,32.73
2018-12-23T16:00:29.765Z,32.37
2018-12-23T16:02:58.315Z,31.87
2018-12-23T16:05:26.054Z,28.77
2018-12-23T16:07:56.594Z,26.57
2018-12-23T16:10:25.558Z,28.30
2018-12-23T16:12:53.616Z,25.50
2018-12-23T16:15:21.267Z,26.03
2018-12-23T16:17:48.829Z,28.97
2018-12-23T16:20:16.428Z,28.37
2018-12-23T16:22:44.005Z,28.33
2018-12-23T16:25:11.673Z,26.87
2018-12-23T16:27:39.227Z,26.13
2018-12-23T16:30:10.193Z,24.20
2018-12-23T16:32:37.795Z,22.97
2018-12-23T16:35:07.977Z,25.33
2018-12-23T16:37:35.659Z,25.50
2018-12-23T16:40:03.892Z,26.57
2018-12-23T16:42:31.452Z,26.17
2018-12-23T16:45:02.248Z,27.97
2018-12-23T16:47:29.771Z,29.07
2018-12-23T16:49:57.759Z,32.07
2018-12-23T16:52:25.295Z,37.37
2018-12-23T16:54:54.121Z,38.43
2018-12-23T16:57:21.745Z,42.60
2018-12-23T16:59:49.202Z,41.20
2018-12-23T17:02:16.770Z,48.03
2018-12-23T17:04:46.497Z,44.27
2018-12-23T17:07:14.130Z,40.87
2018-12-23T17:09:41.970Z,39.87
2018-12-23T17:12:09.559Z,33.67
2018-12-23T17:14:38.759Z,31.40
2018-12-23T17:17:07.846Z,31.60
2018-12-23T17:19:35.363Z,31.37
2018-12-23T17:22:02.813Z,30.00
2018-12-23T17:24:30.432Z,32.23
2018-12-23T17:26:58.008Z,31.20
2018-12-23T17:29:27.072Z,32.73
2018-12-23T17:31:57.046Z,33.30
2018-12-23T17:34:24.715Z,32.47
2018-12-23T17:36:52.114Z,33.10
2018-12-23T17:39:19.541Z,31.40
2018-12-23T17:41:47.146Z,31.20
2018-12-23T17:44:14.794Z,29.77
2018-12-23T17:46:44.091Z,33.07
2018-12-23T17:49:11.754Z,31.50
2018-12-23T17:51:40.909Z,31.33
2018-12-23T17:54:22.250Z,29.97
2018-12-23T17:56:50.906Z,30.20
2018-12-23T17:59:18.471Z,31.60
2018-12-23T18:01:46.140Z,29.23
2018-12-23T18:04:15.445Z,28.13
2018-12-23T18:06:43.066Z,28.87
2018-12-23T18:09:10.690Z,31.40
2018-12-23T18:11:38.461Z,33.60
2018-12-23T18:14:07.715Z,33.53
2018-12-23T18:16:35.319Z,32.43
2018-12-23T18:19:06.396Z,33.47
2018-12-23T18:21:35.584Z,34.07
2018-12-23T18:24:03.488Z,34.03
2018-12-23T18:26:31.150Z,33.73
2018-12-23T18:28:58.636Z,32.90
2018-12-23T18:31:26.198Z,34.33
2018-12-23T18:33:56.365Z,35.67
2018-12-23T18:36:24.972Z,33.37
2018-12-23T18:38:53.977Z,34.17
2018-12-23T18:41:21.630Z,36.33
2018-12-23T18:43:49.300Z,39.00
2018-12-23T18:46:18.411Z,35.63
2018-12-23T18:48:45.994Z,34.87
2018-12-23T18:51:15.315Z,33.83
2018-12-23T18:53:42.950Z,30.10
2018-12-23T18:56:10.941Z,27.03
2018-12-23T18:58:38.381Z,26.20
2018-12-23T19:01:06.377Z,26.60
2018-12-23T19:03:33.966Z,28.80
2018-12-23T19:06:01.507Z,27.97
2018-12-23T19:08:29.948Z,30.60
2018-12-23T19:11:02.060Z,30.17
2018-12-23T19:13:43.569Z,30.03
2018-12-23T19:16:12.823Z,30.27
2018-12-23T19:18:48.021Z,31.07
2018-12-23T19:21:33.865Z,30.90
2018-12-23T19:24:20.617Z,29.20
2018-12-23T19:26:53.665Z,29.57
2018-12-23T19:29:41.442Z,29.27
2018-12-23T19:32:26.085Z,29.50
2018-12-23T19:34:55.179Z,30.40
2018-12-23T19:37:36.299Z,29.53
2018-12-23T19:40:22.542Z,27.53
2018-12-23T19:42:51.798Z,27.23
2018-12-23T19:45:33.552Z,29.43
2018-12-23T19:48:05.812Z,26.10
2018-12-23T19:50:35.379Z,25.53
2018-12-23T19:53:20.369Z,26.40
2018-12-23T19:55:49.576Z,28.70
2018-12-23T19:58:35.666Z,29.17
2018-12-23T20:01:07.898Z,27.20
2018-12-23T20:03:37.032Z,27.30
2018-12-23T20:06:09.437Z,26.40
2018-12-23T20:08:38.561Z,28.70
2018-12-23T20:11:07.658Z,28.73
2018-12-23T20:13:36.795Z,28.27
2018-12-23T20:16:05.882Z,29.20
2018-12-23T20:18:34.975Z,29.83
2018-12-23T20:21:21.782Z,26.37
2018-12-23T20:24:06.158Z,25.03
2018-12-23T20:26:44.498Z,25.47
2018-12-23T20:29:19.665Z,25.83
2018-12-23T20:31:58.041Z,27.70
2018-12-23T20:34:27.261Z,23.10
2018-12-23T20:36:59.057Z,24.30
2018-12-23T20:39:34.267Z,24.87
2018-12-23T20:42:12.405Z,24.30
2018-12-23T20:44:45.891Z,24.93
2018-12-23T20:47:27.043Z,22.30
2018-12-23T20:49:58.904Z,23.10
2018-12-23T20:52:34.121Z,23.40
2018-12-23T20:55:19.778Z,20.77
2018-12-23T20:57:59.453Z,22.33
2018-12-23T21:00:28.579Z,21.10
2018-12-23T21:02:57.790Z,21.50
2018-12-23T21:05:34.816Z,23.33
2018-12-23T21:08:08.467Z,22.23
2018-12-23T21:10:37.673Z,25.50
2018-12-23T21:13:12.399Z,23.27
2018-12-23T21:15:59.548Z,26.47
2018-12-23T21:18:34.682Z,27.73
2018-12-23T21:21:03.887Z,25.43
2018-12-23T21:23:35.749Z,22.97
2018-12-23T21:26:25.919Z,24.53
2018-12-23T21:28:55.260Z,21.73
2018-12-23T21:31:30.168Z,21.43
2018-12-23T21:33:59.371Z,21.43
2018-12-23T21:36:32.017Z,21.50
2018-12-23T21:39:18.153Z,21.90
2018-12-23T21:41:50.010Z,20.63
2018-12-23T21:44:20.845Z,21.30
2018-12-23T21:46:58.884Z,21.50
2018-12-23T21:49:32.706Z,22.17
2018-12-23T21:52:10.836Z,20.50
2018-12-23T21:54:39.983Z,20.73
2018-12-23T21:57:25.903Z,20.60
2018-12-23T22:00:07.260Z,22.50
2018-12-23T22:02:39.154Z,22.70
2018-12-23T22:05:17.363Z,23.07
2018-12-23T22:07:46.443Z,23.50
2018-12-23T22:10:15.535Z,22.50
2018-12-23T22:12:50.438Z,23.37
2018-12-23T22:15:17.991Z,20.97
2018-12-23T22:17:45.502Z,21.90
2018-12-23T22:20:13.139Z,24.43
2018-12-23T22:22:40.647Z,24.03
2018-12-23T22:25:08.234Z,24.47
2018-12-23T22:27:35.772Z,25.23
2018-12-23T22:30:03.269Z,24.27
2018-12-23T22:32:30.885Z,23.47
2018-12-23T22:34:58.551Z,22.27
2018-12-23T22:37:27.357Z,23.77
2018-12-23T22:39:54.771Z,24.10
2018-12-23T22:42:22.543Z,26.00
2018-12-23T22:44:50.257Z,23.93
2018-12-23T22:47:17.847Z,25.13
2018-12-23T22:49:45.574Z,22.17
2018-12-23T22:52:14.115Z,24.63
2018-12-23T22:54:41.493Z,22.40
2018-12-23T22:57:12.305Z,24.00
2018-12-23T22:59:39.945Z,25.33
2018-12-23T23:02:08.587Z,23.67
2018-12-23T23:04:36.164Z,24.37
2018-12-23T23:07:04.791Z,24.67
2018-12-23T23:09:32.314Z,24.43
2018-12-23T23:11:59.883Z,27.17
2018-12-23T23:14:27.693Z,27.73
2018-12-23T23:16:56.668Z,27.47
2018-12-23T23:19:26.177Z,25.50
2018-12-23T23:21:53.605Z,27.40
2018-12-23T23:24:21.121Z,26.80
2018-12-23T23:26:48.623Z,24.30
2018-12-23T23:29:16.199Z,23.97
2018-12-23T23:31:43.697Z,23.43
2018-12-23T23:34:11.287Z,24.07
2018-12-23T23:36:38.821Z,24.23
2018-12-23T23:39:06.408Z,25.13
2018-12-23T23:41:33.939Z,23.33
2018-12-23T23:44:02.374Z,23.07
2018-12-23T23:46:29.879Z,23.53
2018-12-23T23:48:57.361Z,22.17
2018-12-23T23:51:24.895Z,21.37
2018-12-23T23:53:52.339Z,20.37
2018-12-23T23:56:19.954Z,22.13
2018-12-23T23:58:47.971Z,20.03
